Snapper Creek, Florida
Current Conditions -  °F | °C
As of 11:53 AM on Thursday 23 Oct 2014 (Local Time) from KTMB Reporting Station
Broken Clouds Broken Clouds  
Wind Chill: 81°   Ceiling: 3300
Heat Index: 86°   Visibility: 10mi
Dew Point: 73°   Wind: 13mph
Humidity: 77%   Direction: 50°NE
Pressure: 29.93"   Gusts: NA
Location:  25.6574°N, 80.359°W
Report Text: KTMB 231553Z 05011KT 10SM FEW017 FEW024 BKN033 27/23 A2993 RMK AO2 SLP136 T02720228
Loading
Personal Weather Stations






























Interactive Weather Map
Tropical Storm Tracking
New forecast layout! Learn more

10-Day Weather Forecast

Advertisements
Track Severe Weather on mobile